Time;durP1;ratioP1;P1;durP2;ratioP2;P2;SDS_P1;SDS_P2;PMS_P1;PMS_P2;Temp;Humidity;BMP_temperature;BMP_pressure;BME280_temperature;BME280_humidity;BME280_pressure;Samples;Min_cycle;Max_cycle;Signal;HPM_P1;HPM_P2
2023/03/05 00:10:58;;;;;;;4.88;2.80;;;19.60;59.50;;;;;;4742215;29;87952;-86
2023/03/05 00:13:25;;;;;;;4.78;2.42;;;19.60;59.50;;;;;;4742704;29;86911;-86
2023/03/05 00:15:50;;;;;;;3.83;2.13;;;19.50;59.50;;;;;;4755180;29;90086;-85
2023/03/05 00:18:16;;;;;;;3.33;2.17;;;19.50;59.50;;;;;;4741639;29;87789;-86
2023/03/05 00:20:42;;;;;;;2.92;2.30;;;19.50;59.60;;;;;;4755631;29;91031;-85
2023/03/05 00:23:16;;;;;;;3.60;2.33;;;19.50;59.60;;;;;;4743771;29;87670;-86
2023/03/05 00:32:26;;;;;;;3.20;2.70;;;19.40;59.60;;;;;;4742536;29;87534;-84
2023/03/05 00:34:52;;;;;;;3.75;2.50;;;19.40;59.70;;;;;;4742089;29;88452;-86
2023/03/05 00:37:17;;;;;;;3.92;2.53;;;19.40;59.70;;;;;;4766182;29;89689;-86
2023/03/05 00:39:46;;;;;;;2.53;2.10;;;19.40;59.60;;;;;;4767219;29;88183;-86
2023/03/05 00:42:11;;;;;;;2.37;1.97;;;19.40;59.70;;;;;;4766613;29;91299;-85
2023/03/05 00:44:37;;;;;;;2.65;1.90;;;19.30;59.60;;;;;;4767469;29;87645;-86
2023/03/05 00:47:03;;;;;;;3.10;2.25;;;19.40;59.80;;;;;;4766491;29;87088;-86
2023/03/05 00:49:29;;;;;;;2.28;1.92;;;19.30;59.70;;;;;;4766838;29;87767;-85
2023/03/05 00:51:55;;;;;;;1.95;1.65;;;19.30;59.70;;;;;;4767802;29;90228;-86
2023/03/05 00:54:21;;;;;;;2.45;2.00;;;19.30;59.60;;;;;;4767670;29;87440;-85
2023/03/05 00:56:47;;;;;;;2.70;2.10;;;19.30;59.80;;;;;;4760396;29;87707;-86
2023/03/05 00:59:13;;;;;;;2.78;2.00;;;19.30;59.70;;;;;;4766622;29;89442;-85
2023/03/05 01:01:40;;;;;;;2.90;1.88;;;19.20;59.70;;;;;;4761351;29;89390;-84
2023/03/05 01:04:06;;;;;;;3.90;2.08;;;19.20;59.70;;;;;;4779466;29;87063;-86
2023/03/05 01:06:31;;;;;;;2.15;1.55;;;19.20;59.80;;;;;;4766751;29;90359;-85
2023/03/05 01:08:58;;;;;;;3.42;2.08;;;19.20;59.70;;;;;;4747456;29;88160;-85
2023/03/05 01:11:24;;;;;;;2.58;1.98;;;19.20;59.80;;;;;;4741469;29;88121;-85
2023/03/05 01:23:55;;;;;;;3.05;1.90;;;19.10;59.70;;;;;;4742905;29;87019;-85
2023/03/05 01:26:21;;;;;;;4.40;3.03;;;19.20;59.60;;;;;;4741862;29;88287;-86
2023/03/05 01:28:46;;;;;;;3.22;2.15;;;19.10;59.70;;;;;;4742176;29;87614;-86
2023/03/05 01:31:12;;;;;;;6.80;2.30;;;19.10;59.80;;;;;;4739480;29;90747;-86
2023/03/05 01:33:38;;;;;;;2.42;1.67;;;19.10;60.10;;;;;;4743388;29;87284;-85
2023/03/05 01:36:14;;;;;;;2.53;1.95;;;19.10;60.40;;;;;;4747615;29;87503;-86
2023/03/05 01:38:44;;;;;;;2.80;2.08;;;19.10;60.60;;;;;;4741872;29;87190;-86
2023/03/05 01:41:11;;;;;;;3.72;2.80;;;19.10;60.80;;;;;;4740274;29;92068;-85
2023/03/05 01:43:37;;;;;;;3.20;2.15;;;19.10;60.80;;;;;;4742343;29;88381;-84
2023/03/05 01:46:15;;;;;;;3.33;2.33;;;19.10;60.70;;;;;;4743824;29;87227;-85
2023/03/05 01:48:48;;;;;;;6.40;2.33;;;19.00;60.80;;;;;;4742364;29;91956;-85
2023/03/05 01:51:15;;;;;;;3.80;1.98;;;19.00;60.70;;;;;;4742148;29;88485;-85
2023/03/05 01:53:41;;;;;;;3.63;2.47;;;19.00;60.70;;;;;;4743231;29;88627;-85
2023/03/05 01:56:07;;;;;;;2.28;2.08;;;19.00;60.70;;;;;;4748094;29;87467;-86
2023/03/05 01:58:33;;;;;;;4.65;2.55;;;19.00;60.70;;;;;;4733139;29;87463;-85
2023/03/05 02:21:10;;;;;;;3.47;2.38;;;19.00;60.80;;;;;;4739959;29;88285;-85
2023/03/05 02:23:37;;;;;;;3.00;2.30;;;19.00;60.80;;;;;;4740866;29;87477;-85
2023/03/05 02:26:05;;;;;;;1.90;1.70;;;18.90;60.80;;;;;;4738890;29;90661;-85
2023/03/05 02:28:44;;;;;;;3.45;1.95;;;18.90;60.90;;;;;;4739125;29;91536;-85
2023/03/05 02:31:14;;;;;;;3.25;2.33;;;18.90;60.90;;;;;;4741460;29;87689;-85
2023/03/05 02:33:40;;;;;;;5.28;2.50;;;18.90;60.80;;;;;;4742150;29;92204;-85
2023/03/05 02:36:06;;;;;;;3.42;2.33;;;18.90;60.80;;;;;;4741356;29;87718;-85
2023/03/05 02:38:32;;;;;;;3.65;2.13;;;18.90;60.80;;;;;;4740878;29;87711;-85
2023/03/05 02:40:58;;;;;;;3.67;2.40;;;18.90;61.60;;;;;;4747737;29;87175;-85
2023/03/05 02:43:23;;;;;;;4.43;2.38;;;18.80;60.80;;;;;;4740640;29;88039;-85
2023/03/05 02:45:49;;;;;;;2.30;1.90;;;18.80;60.70;;;;;;4740783;29;88725;-85
2023/03/05 02:48:15;;;;;;;3.00;2.22;;;18.80;60.80;;;;;;4740032;29;92625;-86
2023/03/05 02:50:41;;;;;;;3.35;2.10;;;18.80;60.80;;;;;;4740968;29;87418;-85
2023/03/05 02:53:07;;;;;;;2.10;1.90;;;18.80;60.70;;;;;;4740487;29;87010;-85
2023/03/05 02:55:33;;;;;;;4.20;2.10;;;18.80;60.70;;;;;;4741356;29;88443;-85
2023/03/05 02:57:59;;;;;;;2.33;2.08;;;18.80;60.50;;;;;;4742184;29;88323;-85
2023/03/05 03:00:25;;;;;;;2.75;2.08;;;18.70;60.50;;;;;;4740927;29;87407;-85
2023/03/05 03:02:51;;;;;;;2.05;1.85;;;18.70;60.50;;;;;;4740121;29;86954;-85
2023/03/05 03:05:17;;;;;;;2.58;1.88;;;18.70;60.50;;;;;;4741374;29;87681;-85
2023/03/05 03:07:42;;;;;;;3.58;1.80;;;18.70;60.60;;;;;;4740769;29;87703;-85
2023/03/05 03:10:09;;;;;;;3.15;1.98;;;18.70;60.60;;;;;;4741948;29;87842;-86
2023/03/05 03:12:39;;;;;;;3.25;2.10;;;18.70;60.50;;;;;;4743551;29;87115;-85
2023/03/05 03:15:07;;;;;;;4.68;2.25;;;18.70;60.50;;;;;;4734702;29;87921;-86
2023/03/05 03:17:34;;;;;;;2.05;1.85;;;18.70;60.60;;;;;;4743878;29;87380;-85
2023/03/05 03:20:02;;;;;;;2.55;1.83;;;18.70;60.40;;;;;;4757240;29;87418;-85
2023/03/05 03:22:28;;;;;;;2.17;1.83;;;18.70;60.30;;;;;;4743903;29;87704;-85
2023/03/05 03:31:39;;;;;;;2.20;1.63;;;18.60;60.30;;;;;;4743253;29;87116;-86
2023/03/05 03:34:05;;;;;;;2.35;1.52;;;18.60;60.30;;;;;;4742852;29;87496;-85
2023/03/05 03:36:32;;;;;;;2.38;1.80;;;18.60;60.20;;;;;;4739042;29;90045;-86
2023/03/05 03:38:58;;;;;;;4.03;1.88;;;18.60;60.30;;;;;;4738435;29;89124;-86
2023/03/05 03:41:23;;;;;;;1.73;1.60;;;18.60;60.30;;;;;;4741882;29;87483;-85
2023/03/05 03:43:49;;;;;;;2.00;1.65;;;18.60;60.30;;;;;;4739605;29;87203;-85
2023/03/05 03:46:15;;;;;;;2.45;1.90;;;18.60;60.00;;;;;;4743350;29;87041;-86
2023/03/05 03:48:40;;;;;;;2.10;1.85;;;18.50;59.90;;;;;;4743234;29;87574;-86
2023/03/05 03:51:11;;;;;;;2.95;2.10;;;18.60;60.30;;;;;;4742226;29;86980;-85
2023/03/05 03:53:39;;;;;;;2.30;1.85;;;18.50;60.10;;;;;;4743144;29;87198;-86
2023/03/05 03:56:05;;;;;;;2.50;1.67;;;18.50;60.00;;;;;;4744418;29;88324;-85
2023/03/05 03:58:31;;;;;;;1.88;1.40;;;18.50;60.00;;;;;;4744035;29;88234;-85
2023/03/05 04:00:57;;;;;;;2.55;1.65;;;18.50;60.00;;;;;;4742853;29;88421;-86
2023/03/05 04:03:22;;;;;;;2.33;1.73;;;18.50;59.90;;;;;;4742587;29;87451;-85
2023/03/05 04:05:48;;;;;;;2.88;1.60;;;18.50;59.90;;;;;;4745354;29;88471;-85
2023/03/05 04:08:13;;;;;;;2.20;1.70;;;18.50;59.90;;;;;;4745057;29;88103;-86
2023/03/05 04:10:54;;;;;;;2.47;2.10;;;18.50;60.10;;;;;;4738414;29;87377;-85
2023/03/05 04:13:20;;;;;;;3.00;1.75;;;18.50;60.00;;;;;;4751848;29;88432;-86
2023/03/05 04:15:45;;;;;;;1.88;1.67;;;18.50;59.80;;;;;;4743045;29;88647;-86
2023/03/05 04:18:11;;;;;;;2.65;1.88;;;18.50;59.90;;;;;;4743099;29;88270;-85
2023/03/05 04:20:37;;;;;;;2.33;1.70;;;18.50;59.90;;;;;;4743374;29;87096;-85
2023/03/05 04:23:02;;;;;;;2.50;1.67;;;18.50;59.80;;;;;;4742831;29;87522;-86
2023/03/05 04:25:28;;;;;;;5.07;2.08;;;18.50;59.90;;;;;;4742169;29;88512;-85
2023/03/05 04:27:54;;;;;;;3.47;1.70;;;18.40;59.80;;;;;;4744214;29;88792;-86
2023/03/05 04:30:22;;;;;;;2.05;1.63;;;18.40;59.60;;;;;;4748490;29;87019;-86
2023/03/05 04:32:51;;;;;;;2.45;1.90;;;18.40;59.80;;;;;;4744281;29;87441;-86
2023/03/05 04:38:38;;;;;;;3.30;2.03;;;18.40;59.80;;;;;;4742379;29;87695;-85
2023/03/05 04:41:04;;;;;;;2.80;1.70;;;18.40;59.60;;;;;;4742431;29;87362;-86
2023/03/05 04:43:30;;;;;;;1.60;1.42;;;18.40;59.70;;;;;;4741477;29;90966;-85
2023/03/05 04:45:55;;;;;;;2.95;1.92;;;18.40;59.60;;;;;;4742574;29;88664;-85
2023/03/05 04:48:21;;;;;;;2.80;1.80;;;18.40;59.60;;;;;;4743536;29;88011;-85
2023/03/05 04:50:46;;;;;;;1.80;1.40;;;18.40;59.60;;;;;;4748254;29;89458;-85
2023/03/05 04:53:12;;;;;;;1.85;1.50;;;18.40;59.60;;;;;;4741816;29;87190;-85
2023/03/05 05:02:22;;;;;;;7.53;2.05;;;18.30;59.50;;;;;;4742139;29;87285;-86
2023/03/05 05:04:50;;;;;;;2.55;1.63;;;18.30;59.50;;;;;;4743769;29;87438;-85
2023/03/05 05:07:16;;;;;;;2.93;1.67;;;18.30;59.50;;;;;;4742417;29;87776;-85
2023/03/05 05:09:42;;;;;;;2.35;1.52;;;18.30;59.50;;;;;;4744273;29;88106;-85
2023/03/05 05:15:48;;;;;;;1.80;1.48;;;18.30;59.50;;;;;;4742645;29;87212;-85
2023/03/05 05:18:14;;;;;;;2.15;1.65;;;18.30;59.40;;;;;;4740918;29;89194;-85
2023/03/05 05:20:39;;;;;;;1.77;1.60;;;18.30;59.40;;;;;;4741813;29;89336;-85
2023/03/05 05:23:05;;;;;;;1.90;1.50;;;18.30;59.40;;;;;;4743443;29;87415;-85
2023/03/05 05:25:31;;;;;;;1.98;1.40;;;18.30;59.40;;;;;;4742218;29;87309;-85
2023/03/05 05:27:56;;;;;;;2.17;1.35;;;18.30;59.40;;;;;;4742812;29;87318;-85
2023/03/05 05:30:22;;;;;;;1.67;1.30;;;18.30;59.30;;;;;;4742020;29;88128;-85
2023/03/05 05:32:48;;;;;;;2.05;1.80;;;18.20;59.50;;;;;;4748195;29;87153;-85
2023/03/05 05:38:35;;;;;;;3.17;1.70;;;18.20;59.30;;;;;;4740923;29;87447;-85
2023/03/05 05:41:07;;;;;;;1.27;1.15;;;18.20;59.40;;;;;;4742168;29;87738;-85
2023/03/05 05:43:33;;;;;;;1.38;1.13;;;18.20;59.30;;;;;;4741765;29;88380;-85
2023/03/05 05:46:03;;;;;;;2.05;1.30;;;18.20;59.40;;;;;;4742373;29;87431;-85
2023/03/05 05:48:30;;;;;;;3.53;1.80;;;18.20;59.40;;;;;;4742044;29;89790;-85
2023/03/05 05:50:56;;;;;;;2.20;1.70;;;18.20;59.20;;;;;;4741354;29;88310;-85
2023/03/05 06:00:09;;;;;;;1.48;1.20;;;18.10;59.20;;;;;;4740617;29;87418;-85
2023/03/05 06:02:37;;;;;;;2.33;1.38;;;18.20;59.40;;;;;;4741805;29;87825;-85
2023/03/05 06:05:03;;;;;;;2.17;1.55;;;18.10;59.40;;;;;;4733353;29;87216;-85
2023/03/05 06:07:30;;;;;;;2.22;1.67;;;18.10;59.40;;;;;;4740945;29;89726;-85
2023/03/05 06:09:56;;;;;;;2.30;1.55;;;18.10;59.40;;;;;;4742103;29;89534;-85
2023/03/05 06:12:21;;;;;;;2.13;1.45;;;18.10;59.30;;;;;;4739579;29;91773;-85
2023/03/05 06:14:47;;;;;;;2.88;1.30;;;18.10;59.30;;;;;;4742378;29;87346;-85
2023/03/05 06:17:30;;;;;;;1.58;1.45;;;18.10;59.30;;;;;;4747285;29;89176;-85
2023/03/05 06:19:55;;;;;;;1.95;1.40;;;18.10;59.30;;;;;;4741142;29;87681;-85
2023/03/05 06:22:21;;;;;;;1.80;1.30;;;18.10;59.40;;;;;;4740620;29;88275;-85
2023/03/05 06:24:46;;;;;;;1.27;1.17;;;18.10;59.40;;;;;;4742536;29;87145;-85
2023/03/05 06:27:12;;;;;;;1.80;1.42;;;18.10;59.30;;;;;;4740969;29;91131;-85
2023/03/05 06:29:38;;;;;;;2.92;1.40;;;18.10;59.30;;;;;;4739956;29;88573;-85
2023/03/05 06:32:04;;;;;;;1.55;1.40;;;18.10;59.30;;;;;;4733333;29;87968;-85
2023/03/05 06:34:29;;;;;;;1.33;1.13;;;18.10;59.40;;;;;;4741069;29;88268;-85
2023/03/05 06:36:55;;;;;;;1.65;1.40;;;18.10;59.40;;;;;;4742404;29;87460;-85
2023/03/05 06:44:03;;;;;;;3.13;1.30;;;18.00;59.20;;;;;;4715737;29;91473;-85
2023/03/05 06:46:32;;;;;;;1.77;1.30;;;18.10;59.00;;;;;;4743879;29;87178;-85
2023/03/05 06:49:00;;;;;;;3.20;1.50;;;18.20;58.90;;;;;;4745017;29;87159;-85
2023/03/05 06:51:34;;;;;;;12.48;1.85;;;18.20;58.40;;;;;;4744296;29;88643;-84
2023/03/05 06:54:06;;;;;;;1.92;1.45;;;18.30;58.80;;;;;;4743101;29;91829;-85
2023/03/05 06:56:37;;;;;;;1.73;1.35;;;18.40;58.50;;;;;;4744162;29;87369;-84
2023/03/05 06:59:03;;;;;;;1.88;1.38;;;18.60;58.70;;;;;;4744463;29;87472;-84
2023/03/05 07:01:28;;;;;;;3.30;1.92;;;18.70;58.20;;;;;;4742775;29;89791;-84
2023/03/05 07:03:57;;;;;;;2.42;1.40;;;18.80;58.10;;;;;;4744786;29;88267;-84
2023/03/05 07:06:23;;;;;;;2.07;1.40;;;19.00;57.90;;;;;;4745323;29;87060;-84
2023/03/05 07:08:48;;;;;;;2.33;1.60;;;19.20;57.80;;;;;;4750064;29;88801;-84
2023/03/05 07:18:16;;;;;;;2.97;1.50;;;19.60;57.50;;;;;;4746938;29;87131;-86
2023/03/05 07:20:42;;;;;;;2.13;1.38;;;19.80;57.10;;;;;;4744114;29;87466;-86
2023/03/05 07:23:08;;;;;;;3.75;1.67;;;19.80;57.20;;;;;;4744890;29;88236;-87
2023/03/05 07:25:37;;;;;;;3.40;1.50;;;19.80;57.30;;;;;;4743882;29;88032;-86
2023/03/05 07:28:06;;;;;;;;;;;19.80;57.30;;;;;;4743713;29;87776;-87
2023/03/05 07:30:33;;;;;;;2.00;1.10;;;19.80;57.30;;;;;;4745491;29;88967;-87
2023/03/05 07:32:59;;;;;;;4.30;1.60;;;19.70;57.30;;;;;;4742182;29;90790;-85
2023/03/05 07:35:25;;;;;;;2.25;1.45;;;19.80;57.60;;;;;;4747495;29;91143;-86
2023/03/05 07:37:53;;;;;;;6.75;1.40;;;19.70;57.40;;;;;;4741774;29;87257;-86
2023/03/05 07:40:19;;;;;;;1.95;1.33;;;19.70;57.60;;;;;;4743578;29;87460;-86
2023/03/05 07:42:44;;;;;;;3.97;1.70;;;19.60;57.80;;;;;;4757799;29;91614;-84
2023/03/05 07:45:10;;;;;;;2.00;1.52;;;19.60;58.00;;;;;;4742807;29;88293;-85
2023/03/05 07:47:36;;;;;;;2.78;1.50;;;19.50;58.50;;;;;;4743944;29;86896;-84
2023/03/05 07:50:04;;;;;;;2.72;1.10;;;19.50;58.00;;;;;;4749569;29;90724;-84
2023/03/05 07:52:30;;;;;;;1.53;1.10;;;19.50;57.90;;;;;;4742176;29;89556;-84
2023/03/05 07:54:56;;;;;;;2.53;1.50;;;19.40;58.10;;;;;;4743943;29;88110;-85
2023/03/05 07:57:21;;;;;;;3.65;1.77;;;19.40;58.30;;;;;;4743179;29;87389;-83
2023/03/05 07:59:47;;;;;;;3.25;1.75;;;19.30;58.30;;;;;;4743338;29;87512;-82
2023/03/05 08:02:13;;;;;;;2.33;1.80;;;19.30;58.30;;;;;;4742484;29;91664;-85
2023/03/05 08:04:41;;;;;;;37.05;8.40;;;19.20;58.30;;;;;;4748242;29;91358;-84
2023/03/05 08:07:06;;;;;;;28.25;6.43;;;19.20;57.90;;;;;;4744083;29;87368;-85
2023/03/05 08:09:32;;;;;;;16.02;4.40;;;19.20;58.30;;;;;;4743611;29;87409;-84
2023/03/05 08:11:58;;;;;;;16.60;4.38;;;19.20;58.30;;;;;;4746436;29;88194;-84
2023/03/05 08:14:23;;;;;;;14.27;3.30;;;19.20;58.10;;;;;;4743470;29;88429;-84
2023/03/05 08:16:51;;;;;;;17.42;4.25;;;19.30;58.10;;;;;;4741400;29;88228;-85
2023/03/05 08:19:18;;;;;;;16.08;5.10;;;19.40;57.80;;;;;;4743460;29;87240;-84
2023/03/05 08:21:44;;;;;;;11.00;3.45;;;19.40;57.10;;;;;;4742073;29;92362;-84
2023/03/05 08:24:28;;;;;;;15.48;4.90;;;19.40;56.70;;;;;;4743903;29;88267;-86
2023/03/05 08:26:57;;;;;;;26.55;7.95;;;19.50;55.10;;;;;;4742122;29;87352;-86
2023/03/05 08:29:24;;;;;;;19.88;5.28;;;19.50;54.50;;;;;;4741156;29;87612;-88
2023/03/05 08:31:52;;;;;;;18.80;4.43;;;19.50;54.40;;;;;;4742998;29;88668;-88
2023/03/05 08:34:19;;;;;;;14.93;4.78;;;19.60;54.90;;;;;;4749337;29;90955;-89
2023/03/05 08:36:44;;;;;;;12.73;4.28;;;19.70;54.50;;;;;;4757721;29;87647;-87
2023/03/05 08:39:10;;;;;;;15.20;4.35;;;19.80;54.60;;;;;;4757206;29;89117;-88
2023/03/05 08:41:36;;;;;;;11.13;3.33;;;19.90;54.80;;;;;;4748279;29;93312;-88
2023/03/05 08:44:02;;;;;;;13.75;4.05;;;20.00;54.80;;;;;;4740937;29;91349;-89
2023/03/05 08:46:28;;;;;;;19.67;5.20;;;20.10;54.60;;;;;;4741542;29;87681;-88
2023/03/05 08:48:54;;;;;;;17.85;5.78;;;20.10;54.70;;;;;;4742747;29;90540;-89
2023/03/05 08:51:26;;;;;;;24.58;8.02;;;20.20;54.40;;;;;;4756016;29;89819;-89
2023/03/05 08:53:54;;;;;;;26.58;7.63;;;20.10;54.00;;;;;;4759120;29;90431;-88
2023/03/05 08:56:20;;;;;;;28.95;7.13;;;20.10;53.90;;;;;;4733051;29;87216;-87
2023/03/05 08:58:46;;;;;;;22.55;6.22;;;20.10;53.40;;;;;;4751431;29;89601;-90
2023/03/05 09:01:24;;;;;;;20.05;5.20;;;20.00;52.80;;;;;;4743146;29;89322;-89
2023/03/05 09:03:50;;;;;;;16.70;5.13;;;19.90;51.70;;;;;;4744120;29;91702;-90
2023/03/05 09:06:15;;;;;;;15.88;5.05;;;19.90;51.20;;;;;;4739214;29;88350;-89
2023/03/05 09:08:41;;;;;;;16.23;5.28;;;19.80;50.70;;;;;;4729673;29;87890;-90
2023/03/05 09:11:10;;;;;;;18.17;5.70;;;19.80;50.20;;;;;;4732946;29;89199;-89
2023/03/05 09:20:19;;;;;;;16.45;4.97;;;19.80;52.40;;;;;;4721199;29;87387;-88
2023/03/05 09:22:45;;;;;;;11.80;3.85;;;19.80;52.80;;;;;;4697474;29;89282;-90
2023/03/05 09:25:11;;;;;;;15.57;6.82;;;19.90;53.30;;;;;;4714000;29;91362;-89
2023/03/05 09:27:37;;;;;;;22.30;8.82;;;19.80;54.20;;;;;;4712853;29;87284;-90
2023/03/05 09:30:04;;;;;;;12.10;4.95;;;19.90;54.80;;;;;;4713379;29;87509;-90
2023/03/05 09:32:30;;;;;;;14.50;5.03;;;19.90;54.30;;;;;;4705365;29;92214;-89
2023/03/05 09:34:57;;;;;;;11.70;4.88;;;20.00;54.10;;;;;;4712552;29;90103;-89
2023/03/05 09:41:29;;;;;;;11.32;4.10;;;20.10;53.30;;;;;;4722432;29;87177;-89
2023/03/05 09:44:27;;;;;;;10.63;4.10;;;20.10;52.50;;;;;;4731632;29;91510;-89
2023/03/05 09:47:13;;;;;;;13.10;3.88;;;20.10;52.80;;;;;;4731975;29;90353;-89
2023/03/05 09:50:02;;;;;;;8.57;3.95;;;20.00;52.70;;;;;;4725156;29;87285;-86
2023/03/05 09:52:56;;;;;;;13.15;3.75;;;19.90;51.80;;;;;;4740846;29;86384;-90
2023/03/05 09:55:34;;;;;;;9.35;3.60;;;19.90;54.40;;;;;;4738373;29;88063;-89
2023/03/05 09:58:09;;;;;;;11.88;4.30;;;19.80;55.50;;;;;;4726383;29;91079;-89
2023/03/05 10:00:40;;;;;;;11.55;3.78;;;19.70;56.50;;;;;;4720620;29;88367;-88
2023/03/05 10:03:18;;;;;;;10.63;3.63;;;19.70;57.50;;;;;;4735197;29;88048;-87
2023/03/05 10:05:49;;;;;;;11.65;3.58;;;19.60;58.40;;;;;;4702262;29;91594;-88
2023/03/05 10:08:21;;;;;;;5.97;3.10;;;19.60;57.80;;;;;;4727067;29;89920;-86
2023/03/05 10:10:51;;;;;;;9.60;3.25;;;19.60;56.20;;;;;;4731833;29;87286;-86
2023/03/05 10:13:28;;;;;;;8.10;3.55;;;19.70;55.50;;;;;;4738902;29;87935;-86
2023/03/05 10:16:36;;;;;;;8.32;2.97;;;19.70;55.10;;;;;;4723771;29;93125;-87
2023/03/05 10:19:10;;;;;;;14.48;4.25;;;19.80;55.30;;;;;;4725522;29;96755;-86
2023/03/05 10:32:19;;;;;;;56.75;17.42;;;20.20;54.80;;;;;;4742575;29;88468;-86
2023/03/05 10:34:51;;;;;;;59.75;18.92;;;20.20;54.90;;;;;;4744568;29;87293;-85
2023/03/05 10:37:32;;;;;;;82.70;24.38;;;20.30;55.00;;;;;;4745187;29;88021;-85
2023/03/05 10:40:04;;;;;;;65.53;20.08;;;20.20;55.00;;;;;;4744803;29;87812;-87
2023/03/05 10:43:24;;;;;;;73.80;23.20;;;20.20;55.20;;;;;;4742825;29;88355;-86
2023/03/05 10:45:57;;;;;;;79.47;24.25;;;20.20;55.30;;;;;;4710043;29;87647;-86
2023/03/05 10:48:41;;;;;;;77.35;24.02;;;20.20;55.20;;;;;;4710759;29;86667;-86
2023/03/05 10:51:32;;;;;;;68.78;22.25;;;20.40;55.40;;;;;;4710395;29;87568;-86
2023/03/05 10:54:24;;;;;;;67.20;21.95;;;20.40;55.10;;;;;;4714862;29;91505;-86
2023/03/05 10:56:50;;;;;;;61.85;20.85;;;20.50;55.10;;;;;;4711045;29;88679;-85
2023/03/05 10:59:16;;;;;;;64.63;21.20;;;20.60;54.90;;;;;;4714119;29;87646;-85
2023/03/05 11:01:59;;;;;;;65.70;20.63;;;20.60;54.90;;;;;;4728256;29;91682;-86
2023/03/05 11:04:28;;;;;;;58.13;20.05;;;20.70;54.60;;;;;;4714123;29;88542;-85
2023/03/05 11:06:54;;;;;;;60.08;20.75;;;20.70;54.40;;;;;;4714485;29;87091;-86
2023/03/05 11:09:28;;;;;;;58.67;20.20;;;20.70;54.60;;;;;;4697031;29;89381;-86
2023/03/05 11:12:05;;;;;;;65.05;21.17;;;20.80;54.60;;;;;;4691804;29;91410;-85
2023/03/05 11:24:37;;;;;;;56.75;17.63;;;20.70;55.70;;;;;;4741419;29;88247;-87
2023/03/05 11:27:21;;;;;;;55.17;18.95;;;20.60;55.80;;;;;;4743103;29;88916;-83
2023/03/05 11:29:53;;;;;;;44.45;15.93;;;20.60;56.10;;;;;;4756956;29;87438;-89
2023/03/05 11:32:27;;;;;;;46.83;17.05;;;20.60;56.10;;;;;;4743877;29;88857;-89
2023/03/05 11:34:54;;;;;;;47.30;15.85;;;20.60;56.30;;;;;;4742696;29;90967;-89
2023/03/05 11:37:31;;;;;;;46.50;17.90;;;20.60;56.20;;;;;;4756477;29;91251;-88
2023/03/05 11:40:19;;;;;;;48.97;16.75;;;20.50;56.30;;;;;;4745150;29;87122;-89
2023/03/05 12:02:31;;;;;;;43.78;13.10;;;20.70;56.10;;;;;;4728491;29;87250;-91
2023/03/05 12:04:58;;;;;;;38.53;12.57;;;20.70;56.70;;;;;;4749550;29;91816;-90
2023/03/05 12:07:34;;;;;;;33.10;11.70;;;20.80;56.60;;;;;;4758325;29;87540;-85
2023/03/05 12:10:01;;;;;;;35.42;12.13;;;20.80;56.50;;;;;;4742430;29;90861;-88
2023/03/05 12:19:48;;;;;;;28.70;10.50;;;20.80;56.30;;;;;;4742582;29;87636;-88
2023/03/05 12:22:20;;;;;;;28.15;10.82;;;20.70;56.50;;;;;;4742911;29;87658;-88
2023/03/05 12:24:47;;;;;;;31.05;11.18;;;20.70;56.80;;;;;;4741861;29;93884;-87
2023/03/05 12:27:29;;;;;;;31.45;11.65;;;20.70;56.70;;;;;;4741783;29;88926;-88
2023/03/05 12:29:56;;;;;;;29.40;10.77;;;20.70;57.00;;;;;;4756870;29;87031;-90
2023/03/05 12:32:21;;;;;;;34.75;12.25;;;20.80;56.90;;;;;;4744036;29;87329;-90
2023/03/05 12:34:48;;;;;;;29.38;10.63;;;20.90;56.60;;;;;;4743994;29;87669;-89
2023/03/05 12:37:20;;;;;;;26.05;9.82;;;20.80;56.50;;;;;;4749265;29;90385;-88
2023/03/05 12:40:11;;;;;;;27.02;10.50;;;20.80;56.40;;;;;;4743149;29;88378;-89
2023/03/05 12:42:37;;;;;;;24.02;9.77;;;20.80;56.50;;;;;;4684994;30;87456;-89
2023/03/05 12:45:08;;;;;;;29.40;10.48;;;20.80;56.40;;;;;;4674013;30;92037;-88
2023/03/05 12:47:35;;;;;;;26.70;9.23;;;20.80;56.60;;;;;;4692741;30;90624;-88
2023/03/05 12:50:02;;;;;;;29.02;10.80;;;20.80;56.60;;;;;;4687644;30;88443;-89
2023/03/05 12:52:31;;;;;;;26.42;10.00;;;20.80;56.60;;;;;;4687088;30;87679;-88
2023/03/05 12:55:22;;;;;;;23.70;9.65;;;20.70;56.50;;;;;;4687973;30;88561;-90
2023/03/05 12:57:56;;;;;;;24.70;9.70;;;20.70;57.20;;;;;;4679554;30;96161;-89
2023/03/05 13:00:39;;;;;;;21.08;8.80;;;20.70;56.50;;;;;;4702514;29;87316;-89
2023/03/05 13:03:11;;;;;;;24.98;9.65;;;20.70;56.60;;;;;;4690188;29;90964;-89
2023/03/05 13:05:38;;;;;;;24.73;9.48;;;20.70;56.60;;;;;;4704325;29;87227;-91
2023/03/05 13:08:20;;;;;;;25.00;9.02;;;20.70;56.70;;;;;;4695546;29;91274;-88
2023/03/05 13:10:57;;;;;;;23.88;9.65;;;20.70;56.60;;;;;;4690994;29;87170;-88
2023/03/05 13:13:29;;;;;;;27.02;10.07;;;20.70;56.50;;;;;;4704725;29;87658;-88
2023/03/05 13:15:55;;;;;;;20.63;8.68;;;20.70;56.50;;;;;;4704787;29;89737;-88
2023/03/05 13:18:27;;;;;;;21.70;8.80;;;20.70;56.40;;;;;;4704198;29;91850;-87
2023/03/05 13:42:33;;;;;;;18.83;8.10;;;20.80;56.20;;;;;;4740653;29;87368;-88
2023/03/05 13:45:02;;;;;;;20.52;7.85;;;20.80;56.40;;;;;;4740233;29;91470;-87
2023/03/05 13:47:30;;;;;;;20.45;7.95;;;20.70;56.40;;;;;;4738027;29;88345;-88
2023/03/05 13:50:03;;;;;;;21.67;8.05;;;20.70;56.30;;;;;;4731729;29;90549;-88
2023/03/05 13:52:34;;;;;;;21.27;8.88;;;20.70;56.40;;;;;;4731551;29;91214;-87
2023/03/05 13:55:01;;;;;;;16.92;7.35;;;20.60;56.50;;;;;;4741486;29;87975;-86
2023/03/05 13:57:49;;;;;;;19.67;8.63;;;20.70;56.20;;;;;;4725398;29;87433;-88
2023/03/05 14:03:36;;;;;;;19.65;7.53;;;20.80;56.30;;;;;;4738179;29;87269;-91
2023/03/05 14:06:12;;;;;;;17.42;7.47;;;20.90;56.40;;;;;;4715002;29;90363;-92
2023/03/05 14:08:38;;;;;;;21.63;8.23;;;20.90;56.30;;;;;;4739257;29;87037;-92
2023/03/05 14:11:13;;;;;;;19.33;7.85;;;21.00;56.20;;;;;;4718266;29;88847;-92
2023/03/05 14:17:36;;;;;;;18.88;7.50;;;21.20;55.80;;;;;;4739183;29;87802;-91
2023/03/05 14:20:28;;;;;;;18.60;7.53;;;21.30;55.80;;;;;;4738685;29;87144;-92
2023/03/05 14:23:01;;;;;;;16.15;6.75;;;21.40;55.70;;;;;;4696689;29;89393;-92
2023/03/05 14:25:44;;;;;;;21.38;7.82;;;21.40;55.70;;;;;;4703823;29;90428;-93
2023/03/05 14:28:15;;;;;;;19.08;6.95;;;21.40;55.70;;;;;;4735828;29;91016;-92
2023/03/05 14:30:47;;;;;;;14.30;6.90;;;21.40;55.60;;;;;;4722855;29;88168;-91
2023/03/05 14:33:13;;;;;;;16.50;7.18;;;21.30;55.70;;;;;;4693503;30;89082;-92
2023/03/05 14:35:47;;;;;;;17.83;7.05;;;21.30;55.80;;;;;;4694445;30;87530;-92
2023/03/05 14:38:22;;;;;;;17.52;7.32;;;21.30;55.90;;;;;;4679512;30;90309;-92
2023/03/05 14:40:52;;;;;;;17.05;7.35;;;21.40;56.00;;;;;;4693638;30;88109;-92
2023/03/05 14:43:18;;;;;;;17.05;6.57;;;21.40;55.90;;;;;;4679772;30;89806;-91
2023/03/05 14:45:45;;;;;;;17.90;6.50;;;21.50;55.60;;;;;;4696739;30;88345;-93
2023/03/05 14:48:39;;;;;;;15.82;6.85;;;21.60;54.70;;;;;;4680073;30;91196;-94
2023/03/05 14:51:08;;;;;;;14.18;5.85;;;21.70;55.00;;;;;;4648265;30;87336;-91
2023/03/05 14:53:39;;;;;;;16.90;7.20;;;21.70;54.70;;;;;;4659488;30;87034;-92
2023/03/05 15:02:48;;;;;;;12.80;5.47;;;21.90;55.10;;;;;;4657615;30;87310;-92
2023/03/05 15:05:15;;;;;;;13.93;6.13;;;21.90;55.20;;;;;;4699716;29;87400;-92
2023/03/05 15:07:41;;;;;;;14.07;6.45;;;21.80;55.40;;;;;;4692217;29;91502;-91
2023/03/05 15:10:14;;;;;;;12.77;5.63;;;21.90;55.60;;;;;;4689138;30;92625;-92
2023/03/05 15:12:41;;;;;;;16.15;6.18;;;21.90;55.80;;;;;;4688022;29;87473;-92
2023/03/05 15:15:09;;;;;;;12.85;5.82;;;21.90;55.10;;;;;;4700404;29;89736;-92
2023/03/05 15:17:38;;;;;;;10.40;4.77;;;22.10;55.10;;;;;;4677089;30;90855;-93
2023/03/05 15:20:07;;;;;;;14.98;4.82;;;22.10;55.40;;;;;;4695395;30;87848;-92
2023/03/05 15:22:33;;;;;;;12.32;4.85;;;22.20;55.50;;;;;;4694033;30;86992;-94
2023/03/05 15:25:18;;;;;;;10.32;5.20;;;22.20;55.70;;;;;;4683248;30;90542;-92
2023/03/05 15:27:56;;;;;;;13.60;5.45;;;22.20;56.10;;;;;;4708395;29;96134;-94
2023/03/05 15:30:25;;;;;;;12.43;5.25;;;22.30;56.40;;;;;;4736231;29;89753;-94
2023/03/05 15:32:52;;;;;;;;;;;22.30;56.60;;;;;;4736697;29;88104;-94
2023/03/05 15:35:17;;;;;;;16.17;5.28;;;22.40;57.50;;;;;;4737085;29;87653;-94
2023/03/05 15:37:43;;;;;;;15.40;5.70;;;22.50;57.10;;;;;;4735508;29;88130;-93
2023/03/05 15:40:09;;;;;;;18.60;6.03;;;22.50;56.90;;;;;;4740030;29;87513;-94
2023/03/05 15:42:35;;;;;;;16.55;6.20;;;22.60;57.50;;;;;;4748121;29;86992;-93
2023/03/05 15:45:05;;;;;;;15.18;5.57;;;22.60;58.00;;;;;;4752118;29;89230;-94
2023/03/05 15:47:49;;;;;;;17.85;5.18;;;22.60;57.70;;;;;;4753304;29;90518;-95
2023/03/05 15:50:16;;;;;;;21.20;5.57;;;22.50;57.60;;;;;;4755668;29;90160;-95
2023/03/05 15:52:41;;;;;;;13.65;4.97;;;22.50;57.60;;;;;;4747671;29;86981;-94
2023/03/05 15:55:10;;;;;;;14.35;5.03;;;22.50;58.00;;;;;;4749970;29;89597;-93